CheckWX is a tool to help pilots better visualize weather data.  It is not intended as a substitute for an official pre-flight weather briefing.

07:05:46 UTC

EGXT TAF
RAF Wittering Airport
Wittering, United Kingdom
TAF EGXT 190515Z 1906/1915 VRB03KT 4500 BR SCT002 OVC035 BECMG 1907/1910 9999 NSW SCT010 BECMG 1910/1912 FEW018 TEMPO 1912/1915 7000 SHRA BKN014 PROB30 TEMPO 1914/1915 3500 TSRA BKN012CB

Jun-19@
06:00 UTC

Jun-19 @ 06:00 UTC

Jun-19@
07:00 UTC

Jun-19 @ 07:00 UTC

TAF EGXT 190515Z 1906/1915 VRB03KT 4500 BR SCT002 OVC035

Expired

Wind
  • Variable at 3 KTS
Conditions
Mist
Cloud Levels
  • Scattered at 200' AGL
  • Overcast at 3,500' AGL

Jun-19@
07:00 UTC

Jun-19 @ 07:00 UTC

Jun-19@
10:00 UTC

Jun-19 @ 10:00 UTC

BECMG 1907/1910 9999 NSW SCT010

Becoming

Becoming Conditions expected by Wed, Jun 19, 2019 @ 10:00 UTC

Wind
  • Variable at 3 KTS
Conditions
No significant weather
Cloud Levels
  • Scattered at 1,000' AGL

Jun-19@
10:00 UTC

Jun-19 @ 10:00 UTC

Jun-19@
15:00 UTC

Jun-19 @ 15:00 UTC

BECMG 1910/1912 FEW018

Becoming

Becoming Conditions expected by Wed, Jun 19, 2019 @ 12:00 UTC

Wind
  • Variable at 3 KTS
Conditions
No significant weather
Cloud Levels
  • Few at 1,800' AGL

Jun-19@
12:00 UTC

Jun-19 @ 12:00 UTC

Jun-19@
15:00 UTC

Jun-19 @ 15:00 UTC

TEMPO 1912/1915 7000 SHRA BKN014

Temporary

Temporary Changes expected for less than half the time period

Conditions
Rain
Cloud Levels
  • Broken at 1,400' AGL

Jun-19@
14:00 UTC

Jun-19 @ 14:00 UTC

Jun-19@
15:00 UTC

Jun-19 @ 15:00 UTC

PROB30 TEMPO 1914/1915 3500 TSRA BKN012CB

Temporary - 30% Likelihood

Temporary - 30% Likelihood during this time.

Conditions
Thunderstorm, Rain
Cloud Levels
  • Broken at 1,200' AGL